Time;durP1;ratioP1;P1;durP2;ratioP2;P2;SDS_P1;SDS_P2;PMS_P1;PMS_P2;Temp;Humidity;BMP_temperature;BMP_pressure;BME280_temperature;BME280_humidity;BME280_pressure;Samples;Min_cycle;Max_cycle;Signal;HPM_P1;HPM_P2
2021/05/09 00:02:19;;;;;;;8.93;4.18;;;18.80;78.50;;;;;;5106360;27;20066;-68
2021/05/09 00:04:46;;;;;;;5.38;4.03;;;19.00;77.40;;;;;;5121770;27;20031;-66
2021/05/09 00:07:14;;;;;;;7.65;4.15;;;19.10;77.80;;;;;;5114367;27;20027;-71
2021/05/09 00:09:41;;;;;;;6.38;4.03;;;19.20;77.30;;;;;;5115921;27;20522;-66
2021/05/09 00:12:09;;;;;;;6.35;3.72;;;19.30;75.00;;;;;;5123838;27;20363;-69
2021/05/09 00:14:36;;;;;;;5.72;3.13;;;19.40;74.20;;;;;;5117688;27;20035;-71
2021/05/09 00:17:03;;;;;;;4.80;4.03;;;19.30;74.70;;;;;;5112969;28;20035;-66
2021/05/09 00:19:31;;;;;;;7.35;3.85;;;19.40;74.70;;;;;;5097302;28;20364;-65
2021/05/09 00:21:58;;;;;;;6.10;3.83;;;19.40;76.20;;;;;;5127545;27;20023;-67
2021/05/09 00:24:26;;;;;;;5.90;3.75;;;19.50;76.20;;;;;;5123636;28;20483;-63
2021/05/09 00:26:53;;;;;;;6.25;3.85;;;19.60;72.30;;;;;;5101781;28;20023;-62
2021/05/09 00:29:20;;;;;;;6.93;3.78;;;19.70;72.10;;;;;;5125198;27;20449;-63
2021/05/09 00:31:47;;;;;;;5.60;4.03;;;19.80;72.60;;;;;;5123538;28;20607;-72
2021/05/09 00:34:15;;;;;;;4.47;3.88;;;19.80;72.70;;;;;;5112089;28;20032;-64
2021/05/09 00:36:42;;;;;;;7.53;6.05;;;19.90;72.70;;;;;;5110715;27;20055;-64
2021/05/09 00:39:09;;;;;;;4.10;3.70;;;20.00;73.00;;;;;;5121173;28;20411;-64
2021/05/09 00:41:37;;;;;;;5.30;3.97;;;20.10;70.60;;;;;;5119575;28;20043;-65
2021/05/09 00:44:04;;;;;;;6.30;3.58;;;20.10;70.20;;;;;;5124534;28;20031;-62
2021/05/09 00:46:32;;;;;;;6.30;2.67;;;20.20;65.80;;;;;;5118138;28;20064;-63
2021/05/09 00:49:03;;;;;;;10.15;8.55;;;20.20;65.40;;;;;;5109939;28;20020;-65
2021/05/09 00:51:30;;;;;;;8.57;4.68;;;20.30;70.40;;;;;;5112990;28;20078;-66
2021/05/09 00:54:00;;;;;;;9.50;7.93;;;20.40;67.60;;;;;;5119995;28;20023;-65
2021/05/09 00:56:31;;;;;;;7.70;4.97;;;20.50;68.20;;;;;;5118438;28;20483;-67
2021/05/09 00:59:03;;;;;;;10.15;3.80;;;20.50;67.50;;;;;;5119030;28;20027;-65
2021/05/09 01:01:31;;;;;;;4.07;2.80;;;20.60;66.80;;;;;;5108082;28;20031;-71
2021/05/09 01:03:59;;;;;;;7.10;3.78;;;20.60;66.60;;;;;;5116523;28;20451;-66
2021/05/09 01:06:27;;;;;;;7.57;4.45;;;20.70;66.90;;;;;;5111669;28;20743;-66
2021/05/09 01:08:54;;;;;;;5.45;2.03;;;20.80;67.00;;;;;;5125024;27;20026;-66
2021/05/09 01:11:21;;;;;;;6.00;2.13;;;20.90;62.10;;;;;;5129029;27;20020;-68
2021/05/09 01:13:50;;;;;;;4.53;2.72;;;20.80;62.30;;;;;;5118463;27;20027;-69
2021/05/09 01:16:17;;;;;;;17.92;3.80;;;20.80;65.00;;;;;;5121181;27;20027;-63
2021/05/09 01:18:45;;;;;;;3.13;2.20;;;20.80;62.80;;;;;;5101768;27;20433;-63
2021/05/09 01:21:12;;;;;;;4.60;4.13;;;20.80;62.10;;;;;;5124538;27;20503;-63
2021/05/09 01:23:40;;;;;;;4.82;2.58;;;20.70;63.60;;;;;;5096506;22;20537;-64
2021/05/09 01:26:07;;;;;;;3.00;2.55;;;20.70;65.90;;;;;;5085838;28;20016;-65
2021/05/09 01:28:34;;;;;;;4.32;2.10;;;20.70;63.50;;;;;;5085889;28;20026;-66
2021/05/09 01:31:01;;;;;;;3.20;1.70;;;20.60;62.70;;;;;;5087351;28;20028;-73
2021/05/09 01:33:29;;;;;;;4.55;2.38;;;20.60;64.50;;;;;;5086020;28;20020;-68
2021/05/09 01:35:56;;;;;;;4.80;2.80;;;20.60;64.00;;;;;;5088112;28;20024;-68
2021/05/09 01:38:24;;;;;;;4.22;2.42;;;20.50;64.60;;;;;;5087230;28;20469;-72
2021/05/09 01:40:51;;;;;;;3.67;2.25;;;20.50;64.30;;;;;;5089563;28;20032;-68
2021/05/09 01:43:19;;;;;;;3.55;2.42;;;20.40;65.50;;;;;;5083460;28;20012;-70
2021/05/09 01:45:46;;;;;;;3.25;1.80;;;20.30;65.90;;;;;;5086617;28;20101;-67
2021/05/09 01:48:16;;;;;;;9.77;2.30;;;20.30;65.60;;;;;;5086722;28;20035;-66
2021/05/09 01:50:47;;;;;;;2.67;1.60;;;20.30;67.00;;;;;;5068640;28;20392;-62
2021/05/09 01:53:17;;;;;;;3.75;3.10;;;20.30;66.00;;;;;;5067869;28;20017;-68
2021/05/09 01:55:44;;;;;;;3.58;2.65;;;20.40;66.90;;;;;;5085186;28;20176;-62
2021/05/09 01:58:12;;;;;;;3.45;2.25;;;20.50;64.80;;;;;;5086914;28;20039;-62
2021/05/09 02:00:39;;;;;;;7.95;5.60;;;20.60;64.10;;;;;;5083745;28;20789;-63
2021/05/09 02:03:06;;;;;;;3.53;2.10;;;20.50;65.10;;;;;;5086892;28;20046;-61
2021/05/09 02:05:34;;;;;;;2.65;2.20;;;20.60;64.40;;;;;;5082460;28;20413;-64
2021/05/09 02:08:01;;;;;;;5.40;4.65;;;20.70;63.80;;;;;;5084058;28;20027;-68
2021/05/09 02:10:29;;;;;;;5.22;3.35;;;20.70;65.00;;;;;;5066476;28;20027;-67
2021/05/09 02:12:56;;;;;;;5.90;3.38;;;20.70;65.70;;;;;;5080960;28;20389;-68
2021/05/09 02:15:23;;;;;;;2.15;1.95;;;20.80;67.10;;;;;;5084778;28;20024;-65
2021/05/09 02:17:56;;;;;;;6.07;2.40;;;20.90;63.30;;;;;;5083989;28;20028;-66
2021/05/09 02:20:24;;;;;;;5.70;2.88;;;21.10;62.70;;;;;;5082519;28;20548;-75
2021/05/09 02:22:52;;;;;;;7.10;4.07;;;21.10;63.20;;;;;;5077000;28;20078;-67
2021/05/09 02:25:22;;;;;;;4.32;3.03;;;21.20;64.00;;;;;;5082310;28;20016;-69
2021/05/09 02:27:50;;;;;;;2.35;1.50;;;21.30;62.10;;;;;;5084032;28;20054;-71
2021/05/09 02:30:17;;;;;;;4.72;2.60;;;21.30;62.30;;;;;;5068689;28;20130;-73
2021/05/09 02:32:45;;;;;;;4.53;2.70;;;21.30;62.50;;;;;;5069546;28;20053;-72
2021/05/09 02:35:12;;;;;;;4.45;2.35;;;21.30;63.60;;;;;;5057171;28;20025;-70
2021/05/09 02:37:40;;;;;;;4.15;2.42;;;21.40;64.60;;;;;;5060091;28;20036;-66
2021/05/09 02:40:08;;;;;;;5.13;2.88;;;21.40;64.40;;;;;;5060239;28;20021;-71
2021/05/09 02:42:39;;;;;;;31.13;23.95;;;21.50;65.40;;;;;;5058605;28;20029;-74
2021/05/09 02:45:07;;;;;;;3.30;2.30;;;21.70;65.00;;;;;;5040829;28;20411;-66
2021/05/09 02:47:34;;;;;;;4.13;2.20;;;21.80;62.40;;;;;;5058685;28;20500;-66
2021/05/09 02:50:05;;;;;;;5.80;2.80;;;21.80;60.60;;;;;;5062619;28;20023;-68
2021/05/09 02:52:33;;;;;;;5.88;2.63;;;21.80;61.90;;;;;;5063773;28;20036;-68
2021/05/09 02:55:04;;;;;;;4.82;2.83;;;21.70;61.80;;;;;;5046080;28;20051;-66
2021/05/09 02:57:31;;;;;;;6.65;4.90;;;21.90;64.20;;;;;;5062409;28;20104;-66
2021/05/09 03:00:02;;;;;;;4.47;3.53;;;22.00;63.50;;;;;;5056993;28;20873;-67
2021/05/09 03:02:33;;;;;;;9.85;7.10;;;22.00;63.30;;;;;;5038325;28;20451;-69
2021/05/09 03:05:00;;;;;;;4.45;3.38;;;22.30;64.60;;;;;;5043205;28;20474;-65
2021/05/09 03:07:28;;;;;;;6.32;3.08;;;22.30;63.50;;;;;;5058370;28;20021;-66
2021/05/09 03:09:58;;;;;;;5.00;2.67;;;22.40;63.00;;;;;;5058359;28;20031;-65
2021/05/09 03:12:28;;;;;;;5.28;2.60;;;22.50;61.40;;;;;;5041477;28;20408;-68
2021/05/09 03:15:01;;;;;;;9.75;7.22;;;22.50;63.60;;;;;;5038766;28;20082;-68
2021/05/09 03:20:24;;;;;;;10.05;5.43;;;22.50;64.30;;;;;;5055999;28;20028;-67
2021/05/09 03:22:52;;;;;;;5.57;4.18;;;22.70;63.60;;;;;;5042453;28;20574;-66
2021/05/09 03:25:20;;;;;;;6.55;3.80;;;22.80;62.70;;;;;;5074094;28;20029;-65
2021/05/09 03:27:53;;;;;;;5.78;3.30;;;22.90;64.20;;;;;;5058559;28;20056;-65
2021/05/09 03:30:20;;;;;;;6.90;3.08;;;23.00;62.40;;;;;;5044334;28;20032;-67
2021/05/09 03:32:53;;;;;;;5.82;3.47;;;22.90;63.90;;;;;;5059320;28;20016;-65
2021/05/09 03:35:24;;;;;;;6.72;4.15;;;22.90;64.40;;;;;;5041925;28;20025;-67
2021/05/09 03:37:51;;;;;;;7.75;3.67;;;22.80;63.60;;;;;;5043725;28;20036;-66
2021/05/09 03:40:19;;;;;;;5.07;3.42;;;22.70;65.00;;;;;;5060580;28;20029;-70
2021/05/09 03:42:46;;;;;;;7.53;4.18;;;22.70;66.00;;;;;;5039494;28;20514;-71
2021/05/09 03:45:14;;;;;;;4.53;3.47;;;22.60;66.80;;;;;;5055728;28;20079;-67
2021/05/09 03:47:41;;;;;;;5.97;3.20;;;22.60;65.40;;;;;;5057594;28;20021;-66
2021/05/09 03:50:12;;;;;;;5.45;3.50;;;22.50;66.30;;;;;;5058313;28;20035;-72
2021/05/09 03:52:44;;;;;;;5.22;2.95;;;22.50;65.60;;;;;;5057656;28;20032;-66
2021/05/09 03:55:11;;;;;;;6.70;3.20;;;22.60;64.10;;;;;;5060423;28;20056;-67
2021/05/09 03:57:38;;;;;;;4.28;2.67;;;22.60;65.60;;;;;;5039457;28;20116;-65
2021/05/09 04:00:06;;;;;;;3.28;2.63;;;22.60;64.80;;;;;;4359507;28;10000460;-70
2021/05/09 04:02:34;;;;;;;4.20;2.60;;;22.50;65.10;;;;;;5056922;28;21014;-68
2021/05/09 04:05:01;;;;;;;5.13;2.78;;;22.50;62.60;;;;;;5020212;28;20561;-67
2021/05/09 04:07:29;;;;;;;5.95;2.90;;;22.40;63.30;;;;;;5054236;28;20008;-72
2021/05/09 04:09:56;;;;;;;4.32;2.38;;;22.50;64.10;;;;;;5045358;28;20504;-73
2021/05/09 04:12:23;;;;;;;6.38;3.35;;;22.40;63.90;;;;;;5062718;28;20027;-70
2021/05/09 04:15:00;;;;;;;10.07;7.43;;;22.40;64.10;;;;;;5055555;28;20028;-71
2021/05/09 04:17:27;;;;;;;6.20;5.25;;;22.50;63.20;;;;;;5053138;28;20028;-72
2021/05/09 04:19:54;;;;;;;5.85;3.42;;;22.60;62.80;;;;;;5074399;28;20036;-71
2021/05/09 04:22:22;;;;;;;6.38;4.28;;;22.60;63.20;;;;;;5060768;28;20103;-72
2021/05/09 04:24:49;;;;;;;5.03;3.65;;;22.90;62.90;;;;;;5053991;28;20384;-72
2021/05/09 04:27:16;;;;;;;4.47;3.55;;;22.90;62.20;;;;;;5078496;28;20511;-69
2021/05/09 04:29:44;;;;;;;4.53;3.47;;;22.90;61.90;;;;;;5063010;28;20032;-69
2021/05/09 04:32:11;;;;;;;10.18;4.68;;;22.80;61.50;;;;;;5063911;28;20016;-71
2021/05/09 04:34:41;;;;;;;12.25;10.18;;;22.80;62.90;;;;;;5063530;28;20016;-71
2021/05/09 04:37:08;;;;;;;11.55;9.57;;;22.80;63.00;;;;;;5051975;28;20028;-69
2021/05/09 04:39:35;;;;;;;5.90;4.93;;;22.70;63.60;;;;;;5060980;28;20040;-70
2021/05/09 04:42:03;;;;;;;7.10;3.58;;;22.70;63.40;;;;;;5062794;28;20438;-71
2021/05/09 04:44:30;;;;;;;7.43;3.85;;;22.60;62.70;;;;;;5046518;28;20021;-71
2021/05/09 04:46:57;;;;;;;6.13;3.45;;;22.30;64.00;;;;;;5040132;28;20029;-72
2021/05/09 04:49:24;;;;;;;4.13;3.50;;;22.20;65.30;;;;;;5058312;28;20021;-71
2021/05/09 04:51:52;;;;;;;4.22;3.47;;;22.20;66.70;;;;;;5045272;28;20450;-70
2021/05/09 04:54:19;;;;;;;5.72;3.67;;;22.10;65.90;;;;;;5061980;28;20016;-68
2021/05/09 04:56:46;;;;;;;6.95;3.83;;;22.00;66.50;;;;;;5048804;28;20381;-71
2021/05/09 04:59:14;;;;;;;8.45;3.17;;;22.00;66.50;;;;;;5080955;28;20155;-66
2021/05/09 05:01:41;;;;;;;7.93;3.50;;;22.00;66.50;;;;;;5066642;28;20046;-67
2021/05/09 05:04:08;;;;;;;6.45;3.55;;;22.00;67.10;;;;;;5068009;28;20016;-66
2021/05/09 05:06:35;;;;;;;3.15;2.30;;;21.90;67.00;;;;;;5064313;28;20080;-67
2021/05/09 05:09:03;;;;;;;6.20;3.30;;;21.80;67.30;;;;;;5066675;28;20512;-70
2021/05/09 05:11:30;;;;;;;4.40;2.80;;;21.70;66.90;;;;;;5067193;28;20031;-70
2021/05/09 05:13:57;;;;;;;6.47;3.20;;;21.60;67.20;;;;;;5066818;28;20049;-64
2021/05/09 05:16:25;;;;;;;10.05;3.33;;;21.60;67.50;;;;;;5067573;28;20539;-66
2021/05/09 05:18:52;;;;;;;5.13;3.10;;;21.50;68.20;;;;;;5067383;28;20078;-71
2021/05/09 05:21:19;;;;;;;6.78;2.88;;;21.50;67.90;;;;;;5065916;28;20024;-69
2021/05/09 05:23:49;;;;;;;8.25;3.35;;;21.50;66.90;;;;;;5074378;28;20151;-72
2021/05/09 05:26:16;;;;;;;4.35;2.92;;;21.40;67.30;;;;;;5079309;28;20572;-72
2021/05/09 05:28:44;;;;;;;7.03;3.05;;;21.30;67.10;;;;;;5066814;28;20633;-71
2021/05/09 05:31:11;;;;;;;3.53;2.67;;;21.20;66.60;;;;;;5067116;28;20036;-71
2021/05/09 05:33:38;;;;;;;4.43;3.60;;;21.10;66.40;;;;;;5064484;28;20142;-72
2021/05/09 05:36:08;;;;;;;13.60;12.15;;;21.00;66.20;;;;;;5058218;28;20040;-72
2021/05/09 05:38:36;;;;;;;6.85;5.65;;;21.00;66.90;;;;;;5062353;28;20064;-69
2021/05/09 05:41:03;;;;;;;9.90;6.22;;;20.90;67.30;;;;;;5063770;28;20036;-72
2021/05/09 05:43:33;;;;;;;8.88;6.65;;;20.90;67.60;;;;;;5048397;28;20027;-69
2021/05/09 05:46:03;;;;;;;9.73;4.82;;;20.80;67.80;;;;;;5060819;28;20024;-72
2021/05/09 05:48:30;;;;;;;7.78;5.45;;;20.80;68.50;;;;;;5064662;28;20033;-67
2021/05/09 05:50:58;;;;;;;8.18;6.28;;;20.80;69.20;;;;;;5062953;28;20036;-72
2021/05/09 05:53:29;;;;;;;6.13;4.70;;;20.70;70.30;;;;;;5064952;28;20024;-71
2021/05/09 05:55:57;;;;;;;6.25;4.00;;;20.70;71.00;;;;;;5060343;28;20356;-69
2021/05/09 05:58:25;;;;;;;10.57;4.22;;;20.70;70.60;;;;;;5065238;28;20451;-69
2021/05/09 06:00:55;;;;;;;6.95;3.60;;;20.60;71.10;;;;;;5054653;28;20029;-70
2021/05/09 06:03:23;;;;;;;3.78;3.25;;;20.60;71.70;;;;;;5061477;28;20066;-64
2021/05/09 06:05:51;;;;;;;7.82;3.53;;;20.50;71.50;;;;;;5064596;28;20016;-68
2021/05/09 06:08:18;;;;;;;5.15;3.60;;;20.30;72.50;;;;;;5059131;28;20027;-71
2021/05/09 06:10:46;;;;;;;5.60;3.63;;;20.10;73.80;;;;;;5058634;28;20027;-62
2021/05/09 06:13:14;;;;;;;5.30;4.00;;;20.00;74.60;;;;;;5058130;28;20027;-72
2021/05/09 06:15:41;;;;;;;4.75;3.90;;;20.00;75.50;;;;;;5063074;28;20034;-72
2021/05/09 06:18:09;;;;;;;7.32;5.35;;;19.90;76.50;;;;;;5064529;28;20033;-62
2021/05/09 06:20:37;;;;;;;8.38;6.20;;;19.90;76.50;;;;;;5071057;28;20059;-71
2021/05/09 06:23:10;;;;;;;16.20;14.55;;;20.00;76.90;;;;;;5039018;28;20052;-63
2021/05/09 06:25:38;;;;;;;5.10;3.67;;;19.90;77.70;;;;;;5037006;28;20098;-64
2021/05/09 06:28:06;;;;;;;5.00;3.22;;;19.80;78.20;;;;;;5038337;28;20084;-71
2021/05/09 06:30:39;;;;;;;6.75;3.35;;;19.70;79.40;;;;;;5065304;28;20021;-63
2021/05/09 06:33:07;;;;;;;6.15;3.30;;;19.60;79.80;;;;;;5039524;28;20449;-63
2021/05/09 06:35:37;;;;;;;5.50;3.35;;;19.70;80.10;;;;;;5051348;28;20107;-63
2021/05/09 06:38:09;;;;;;;4.07;3.03;;;19.60;80.20;;;;;;5044697;28;20477;-71
2021/05/09 06:40:38;;;;;;;4.63;3.35;;;19.40;80.40;;;;;;5042753;28;20499;-72
2021/05/09 06:43:28;;;;;;;6.00;3.50;;;19.40;80.40;;;;;;5041234;28;20516;-63
2021/05/09 06:45:57;;;;;;;4.80;2.78;;;19.30;80.40;;;;;;5047870;28;20033;-68
2021/05/09 06:48:25;;;;;;;4.63;3.58;;;19.20;81.30;;;;;;5042312;28;20029;-70
2021/05/09 06:50:52;;;;;;;4.40;2.80;;;19.10;81.90;;;;;;5044607;28;20025;-69
2021/05/09 06:53:19;;;;;;;3.38;2.60;;;19.10;81.70;;;;;;5047895;28;20032;-62
2021/05/09 06:55:51;;;;;;;4.75;2.78;;;19.00;82.20;;;;;;5043457;28;20025;-65
2021/05/09 06:58:23;;;;;;;4.80;2.80;;;19.00;82.30;;;;;;5039376;28;20397;-70
2021/05/09 07:00:50;;;;;;;4.05;2.88;;;19.00;82.50;;;;;;5046342;28;20032;-69
2021/05/09 07:03:18;;;;;;;3.88;2.58;;;19.00;82.10;;;;;;5036543;28;20397;-61
2021/05/09 07:05:45;;;;;;;2.70;2.40;;;19.00;82.60;;;;;;5035951;28;20033;-69
2021/05/09 07:08:24;;;;;;;2.47;2.08;;;18.90;82.90;;;;;;5043398;28;20029;-70
2021/05/09 07:10:51;;;;;;;4.75;2.72;;;18.80;83.50;;;;;;5040417;28;20039;-65
2021/05/09 07:13:19;;;;;;;5.63;3.42;;;18.80;84.20;;;;;;5040455;28;20028;-65
2021/05/09 07:15:47;;;;;;;6.57;3.60;;;18.60;85.90;;;;;;5047590;28;20021;-72
2021/05/09 07:18:18;;;;;;;6.82;3.58;;;18.50;87.70;;;;;;5047497;28;20207;-73
2021/05/09 07:20:50;;;;;;;4.15;2.92;;;18.50;88.10;;;;;;5042250;28;20299;-65
2021/05/09 07:23:21;;;;;;;;;;;18.30;88.50;;;;;;4939484;28;2900928;-72
2021/05/09 07:25:53;;;;;;;3.92;2.97;;;18.20;89.50;;;;;;5044786;28;20023;-71
2021/05/09 07:28:21;;;;;;;3.60;2.78;;;18.10;90.00;;;;;;5061574;28;20023;-70
2021/05/09 07:30:49;;;;;;;5.15;3.05;;;18.00;89.70;;;;;;5043859;28;20102;-66
2021/05/09 07:33:17;;;;;;;4.97;3.22;;;17.90;89.90;;;;;;5058543;28;20252;-65
2021/05/09 07:35:49;;;;;;;4.88;2.90;;;17.90;90.10;;;;;;5046985;28;20024;-68
2021/05/09 07:38:16;;;;;;;5.65;3.10;;;17.90;89.70;;;;;;5036004;28;20025;-72
2021/05/09 07:40:45;;;;;;;7.15;4.57;;;17.90;90.50;;;;;;5058593;28;20549;-71
2021/05/09 07:43:25;;;;;;;6.20;4.65;;;17.90;90.20;;;;;;5039269;28;20131;-69
2021/05/09 07:45:53;;;;;;;6.13;3.35;;;17.80;90.30;;;;;;5036086;28;20024;-62
2021/05/09 07:48:20;;;;;;;5.57;2.92;;;17.80;90.50;;;;;;5032105;28;20350;-63
2021/05/09 07:50:49;;;;;;;4.30;3.30;;;17.70;90.50;;;;;;5049386;28;20502;-69
2021/05/09 07:53:18;;;;;;;5.38;3.17;;;17.80;90.30;;;;;;5052656;28;20027;-69
2021/05/09 07:55:54;;;;;;;6.88;4.68;;;17.70;90.60;;;;;;5055174;28;20025;-68
2021/05/09 07:58:22;;;;;;;7.40;4.38;;;17.60;91.00;;;;;;5054537;28;20034;-71
2021/05/09 08:00:50;;;;;;;3.38;3.00;;;17.60;90.90;;;;;;5033340;28;20048;-67
2021/05/09 08:03:19;;;;;;;3.80;2.92;;;17.50;91.00;;;;;;5052659;28;20029;-68
2021/05/09 08:05:47;;;;;;;4.88;2.65;;;17.60;91.10;;;;;;5032978;28;21769;-69
2021/05/09 08:08:21;;;;;;;4.43;2.97;;;17.50;91.30;;;;;;5038964;28;20078;-67
2021/05/09 08:10:48;;;;;;;3.45;2.55;;;17.50;91.30;;;;;;5051301;28;20484;-70
2021/05/09 08:13:16;;;;;;;4.82;3.08;;;17.40;91.40;;;;;;5052822;28;20017;-67
2021/05/09 08:15:43;;;;;;;3.80;2.95;;;17.40;91.50;;;;;;5034788;28;20188;-65
2021/05/09 08:18:10;;;;;;;3.20;2.55;;;17.40;91.40;;;;;;5051108;28;20017;-66
2021/05/09 08:20:41;;;;;;;4.28;2.92;;;17.40;91.60;;;;;;5031787;28;20464;-68
2021/05/09 08:23:09;;;;;;;7.05;3.72;;;17.30;91.50;;;;;;5032842;28;20041;-70
2021/05/09 08:25:39;;;;;;;6.65;3.47;;;17.30;91.50;;;;;;5035050;28;20085;-68
2021/05/09 08:28:06;;;;;;;6.35;3.60;;;17.30;91.50;;;;;;5053296;28;20303;-66
2021/05/09 08:30:33;;;;;;;6.75;4.05;;;17.40;91.40;;;;;;5053777;28;20400;-63
2021/05/09 08:33:01;;;;;;;7.35;4.15;;;17.30;91.10;;;;;;5050223;28;20025;-68
2021/05/09 08:35:31;;;;;;;5.90;3.47;;;17.30;91.30;;;;;;5047377;28;20025;-63
2021/05/09 08:37:59;;;;;;;6.85;4.00;;;17.30;91.00;;;;;;5031897;28;20054;-66
2021/05/09 08:40:26;;;;;;;5.20;4.18;;;17.20;91.10;;;;;;5034969;28;20021;-65
2021/05/09 08:42:54;;;;;;;7.57;5.22;;;17.30;91.00;;;;;;5046374;28;20292;-66
2021/05/09 08:45:25;;;;;;;7.78;6.00;;;17.30;90.60;;;;;;5049978;28;20025;-67
2021/05/09 08:47:54;;;;;;;9.45;6.35;;;17.30;90.70;;;;;;5033911;28;20053;-68
2021/05/09 08:50:25;;;;;;;5.32;4.82;;;17.20;90.70;;;;;;5049078;28;20021;-68
2021/05/09 08:52:53;;;;;;;9.32;6.35;;;17.20;90.70;;;;;;5050556;28;20025;-68
2021/05/09 08:55:26;;;;;;;11.88;8.55;;;17.20;90.30;;;;;;5065755;28;20270;-67
2021/05/09 08:57:58;;;;;;;6.13;4.00;;;17.20;90.00;;;;;;5050486;28;20444;-65
2021/05/09 09:00:26;;;;;;;6.03;4.70;;;17.20;89.50;;;;;;5034799;28;20106;-67
2021/05/09 09:02:57;;;;;;;5.65;2.85;;;17.20;90.00;;;;;;5051303;28;20438;-69
2021/05/09 09:05:39;;;;;;;7.00;3.15;;;17.20;88.90;;;;;;5048968;28;20186;-68
2021/05/09 09:08:12;;;;;;;3.28;2.78;;;17.10;89.10;;;;;;5052923;28;20024;-69
2021/05/09 09:10:46;;;;;;;6.03;3.28;;;17.10;89.30;;;;;;5031211;28;20343;-68
2021/05/09 09:13:27;;;;;;;3.97;3.53;;;17.10;88.60;;;;;;5048301;28;20055;-69
2021/05/09 09:15:59;;;;;;;5.32;3.60;;;17.10;89.00;;;;;;5050561;28;20973;-69
2021/05/09 09:18:31;;;;;;;6.22;4.85;;;17.10;89.20;;;;;;5039081;28;20029;-70
2021/05/09 09:21:18;;;;;;;7.45;4.05;;;17.10;89.40;;;;;;5050868;28;20033;-68
2021/05/09 09:23:47;;;;;;;5.32;3.92;;;17.10;89.50;;;;;;5046753;28;20124;-68
2021/05/09 09:26:43;;;;;;;4.72;3.97;;;17.00;90.00;;;;;;5033364;28;20331;-68
2021/05/09 09:29:30;;;;;;;6.03;3.40;;;17.00;89.70;;;;;;5054430;28;20387;-68
2021/05/09 09:32:06;;;;;;;4.07;3.30;;;17.00;89.80;;;;;;5043179;28;20029;-68
2021/05/09 09:34:45;;;;;;;4.80;3.38;;;17.00;89.50;;;;;;5060203;28;20082;-70
2021/05/09 09:37:15;;;;;;;4.15;3.13;;;17.00;89.60;;;;;;5056125;28;20089;-63
2021/05/09 09:40:00;;;;;;;4.32;2.83;;;17.00;89.10;;;;;;5053758;28;20642;-68
2021/05/09 09:42:47;;;;;;;4.82;3.22;;;17.00;89.10;;;;;;5055314;28;20029;-68
2021/05/09 09:45:31;;;;;;;5.20;3.30;;;17.00;89.60;;;;;;5054389;28;20545;-66
2021/05/09 09:48:03;;;;;;;4.65;3.15;;;16.90;89.60;;;;;;5053745;28;20913;-70
2021/05/09 09:50:44;;;;;;;8.38;3.45;;;16.90;89.90;;;;;;5062795;28;20270;-67
2021/05/09 09:53:39;;;;;;;4.88;3.55;;;16.90;90.00;;;;;;5081049;28;20378;-68
2021/05/09 09:56:21;;;;;;;4.88;2.95;;;16.90;90.00;;;;;;5064788;28;20523;-70
2021/05/09 09:58:54;;;;;;;5.22;3.50;;;16.90;90.20;;;;;;5063523;28;20024;-66
2021/05/09 10:01:36;;;;;;;3.72;3.13;;;16.90;89.80;;;;;;5065871;28;20111;-68
2021/05/09 10:04:09;;;;;;;5.57;3.70;;;16.90;90.10;;;;;;5064174;28;20094;-66
2021/05/09 10:06:38;;;;;;;4.68;3.40;;;16.80;90.10;;;;;;5057806;28;20481;-64
2021/05/09 10:09:08;;;;;;;4.57;3.35;;;16.80;90.20;;;;;;5057068;28;20021;-63
2021/05/09 10:11:36;;;;;;;7.18;3.13;;;16.80;90.00;;;;;;5059775;28;20096;-70
2021/05/09 10:14:07;;;;;;;4.90;3.25;;;16.80;90.30;;;;;;5059489;28;20111;-69
2021/05/09 10:16:48;;;;;;;6.00;3.35;;;16.80;90.00;;;;;;5040452;28;20024;-69
2021/05/09 10:19:21;;;;;;;5.20;3.05;;;16.80;90.00;;;;;;5057435;28;20063;-68
2021/05/09 10:21:48;;;;;;;;;;;16.80;90.20;;;;;;5060680;28;20031;-63
2021/05/09 10:24:18;;;;;;;4.60;3.55;;;16.70;90.00;;;;;;5063263;28;20360;-69
2021/05/09 10:26:48;;;;;;;6.15;3.45;;;16.70;90.10;;;;;;5061397;28;20041;-65
2021/05/09 10:32:07;;;;;;;4.82;3.00;;;16.70;90.20;;;;;;5061984;28;20028;-69
2021/05/09 10:35:10;;;;;;;4.43;3.45;;;16.70;90.40;;;;;;5044790;28;20416;-70
2021/05/09 10:40:23;;;;;;;5.63;3.50;;;16.70;90.50;;;;;;5062079;28;20032;-68
2021/05/09 10:43:15;;;;;;;3.58;3.20;;;16.60;90.40;;;;;;5059297;28;20504;-70
2021/05/09 10:45:42;;;;;;;6.25;3.60;;;16.60;90.30;;;;;;5051755;28;20037;-72
2021/05/09 10:51:05;;;;;;;4.60;3.05;;;16.60;90.50;;;;;;5060692;28;20040;-70
2021/05/09 10:53:35;;;;;;;6.38;3.45;;;16.50;90.40;;;;;;5064227;28;20065;-70
2021/05/09 10:56:09;;;;;;;4.32;2.88;;;16.60;90.30;;;;;;5043277;28;20029;-66
2021/05/09 10:58:50;;;;;;;16.52;11.05;;;16.50;90.30;;;;;;5058333;28;20463;-64
2021/05/09 11:01:19;;;;;;;16.00;12.00;;;16.50;90.20;;;;;;5053964;28;20024;-70
2021/05/09 11:04:00;;;;;;;10.25;7.88;;;16.50;90.30;;;;;;5057779;28;20119;-65
2021/05/09 11:06:28;;;;;;;6.47;4.30;;;16.50;90.20;;;;;;5061165;28;20082;-64
2021/05/09 11:09:00;;;;;;;5.32;3.03;;;16.50;90.20;;;;;;5042376;28;20024;-64
2021/05/09 11:11:32;;;;;;;4.53;3.50;;;16.50;90.20;;;;;;5056156;28;20021;-70
2021/05/09 11:16:32;;;;;;;7.43;3.38;;;16.50;90.20;;;;;;5059273;28;19995;-70
2021/05/09 11:19:05;;;;;;;5.78;3.20;;;16.40;90.20;;;;;;5058419;28;20071;-70
2021/05/09 11:21:37;;;;;;;4.88;2.95;;;16.40;90.40;;;;;;5055866;28;20020;-69
2021/05/09 11:24:11;;;;;;;6.72;3.72;;;16.40;90.30;;;;;;5056828;28;20102;-69
2021/05/09 11:26:44;;;;;;;5.85;3.05;;;16.40;90.40;;;;;;5055329;28;20375;-68
2021/05/09 11:29:13;;;;;;;4.10;2.72;;;16.40;90.00;;;;;;5059019;28;20067;-69
2021/05/09 11:31:41;;;;;;;5.93;3.10;;;16.40;90.30;;;;;;5059028;28;20120;-73
2021/05/09 11:34:10;;;;;;;5.00;3.25;;;16.30;90.20;;;;;;5054688;28;20024;-69
2021/05/09 11:36:39;;;;;;;5.63;2.72;;;16.30;89.90;;;;;;5060515;28;20036;-73
2021/05/09 11:39:08;;;;;;;5.57;2.60;;;16.30;90.20;;;;;;5057604;28;20051;-66
2021/05/09 11:41:55;;;;;;;5.65;3.42;;;16.40;90.00;;;;;;5057335;28;20029;-66
2021/05/09 11:44:30;;;;;;;3.90;3.13;;;16.30;90.20;;;;;;5057536;28;20024;-72
2021/05/09 11:46:58;;;;;;;6.70;5.18;;;16.30;90.30;;;;;;5055669;28;20029;-66
2021/05/09 11:49:30;;;;;;;9.38;7.60;;;16.20;90.40;;;;;;5051995;28;20365;-63
2021/05/09 11:52:17;;;;;;;7.05;6.30;;;16.30;90.30;;;;;;5056735;28;20055;-62
2021/05/09 11:54:47;;;;;;;4.38;3.80;;;16.20;90.30;;;;;;5056927;28;20685;-66
2021/05/09 11:57:17;;;;;;;3.97;3.53;;;16.20;90.10;;;;;;5037865;28;20110;-63
2021/05/09 11:59:48;;;;;;;5.18;3.25;;;16.20;90.30;;;;;;5056773;28;20431;-65
2021/05/09 12:02:20;;;;;;;5.97;3.05;;;16.20;90.30;;;;;;5056001;28;20112;-70
2021/05/09 12:05:00;;;;;;;6.80;3.53;;;16.20;90.40;;;;;;5058552;28;20052;-65
2021/05/09 12:07:49;;;;;;;4.90;3.70;;;16.20;90.50;;;;;;5058524;28;20024;-65
2021/05/09 12:10:16;;;;;;;5.20;3.70;;;16.10;90.50;;;;;;5057348;28;20364;-63
2021/05/09 12:12:45;;;;;;;3.70;3.13;;;16.20;90.70;;;;;;5057037;28;20083;-69
2021/05/09 12:15:18;;;;;;;5.50;3.13;;;16.10;90.60;;;;;;5059345;28;20020;-64
2021/05/09 12:17:57;;;;;;;4.43;3.28;;;16.10;90.50;;;;;;5059366;28;20024;-69
2021/05/09 12:20:50;;;;;;;4.15;3.00;;;16.10;90.70;;;;;;5055664;28;20539;-69
2021/05/09 12:23:18;;;;;;;3.75;3.35;;;16.10;90.80;;;;;;5054412;28;20068;-63
2021/05/09 12:25:48;;;;;;;5.32;3.20;;;16.10;90.80;;;;;;5057577;28;20025;-70
2021/05/09 12:28:16;;;;;;;3.42;3.08;;;16.00;91.00;;;;;;5055603;28;20104;-70
2021/05/09 12:30:49;;;;;;;5.15;3.40;;;16.00;90.90;;;;;;5057833;28;20511;-63
2021/05/09 12:33:31;;;;;;;3.40;2.97;;;16.00;90.70;;;;;;5058241;28;20247;-62
2021/05/09 12:35:59;;;;;;;4.10;2.85;;;15.90;90.90;;;;;;5054485;28;20024;-67
2021/05/09 12:38:31;;;;;;;5.90;3.45;;;16.00;90.60;;;;;;5061004;28;20028;-62
2021/05/09 12:41:03;;;;;;;4.60;3.20;;;16.00;90.60;;;;;;5056048;28;20037;-71
2021/05/09 12:43:46;;;;;;;4.05;2.85;;;16.00;90.60;;;;;;5055334;28;20029;-65
2021/05/09 12:46:41;;;;;;;5.00;2.72;;;15.90;90.50;;;;;;5060246;28;20515;-69
2021/05/09 12:49:13;;;;;;;3.85;2.65;;;15.90;90.60;;;;;;5057886;28;20058;-70
2021/05/09 12:52:03;;;;;;;4.57;2.80;;;15.90;90.80;;;;;;5059038;28;20032;-63
2021/05/09 12:54:39;;;;;;;5.18;2.80;;;15.90;90.90;;;;;;5057887;28;20105;-70
2021/05/09 12:57:18;;;;;;;5.32;3.35;;;15.90;91.10;;;;;;5056710;28;20021;-64
2021/05/09 12:59:53;;;;;;;7.13;3.35;;;15.80;91.20;;;;;;5054160;28;20041;-71
2021/05/09 13:02:25;;;;;;;5.10;3.17;;;15.80;91.10;;;;;;5056338;28;20024;-72
2021/05/09 13:05:12;;;;;;;5.28;3.20;;;15.80;91.10;;;;;;5043724;28;20052;-71
2021/05/09 13:07:40;;;;;;;5.20;3.13;;;15.80;91.30;;;;;;5058916;28;20017;-71
2021/05/09 13:10:08;;;;;;;6.63;3.25;;;15.80;91.20;;;;;;5060092;28;20078;-70
2021/05/09 13:12:35;;;;;;;7.38;3.35;;;15.70;91.60;;;;;;5059384;28;20112;-71
2021/05/09 13:15:10;;;;;;;8.05;3.28;;;15.70;91.80;;;;;;5058203;28;20025;-69
2021/05/09 13:17:37;;;;;;;9.50;4.20;;;15.70;91.90;;;;;;5058633;28;20481;-70